If you wish to contribute or participate in the discussions about articles you are invited to join SKYbrary as a registered user

 Actions

Ramsar Airport

From SKYbrary Wiki

OINR
Airport
ICAO: OINR – IATA: RZR
Summary
Name Ramsar Airport
Region Middle East
Territory Iran IR.gif
Location Ramsar, Mazandaran Province
Serving Ramsar
Elevation -21.336 m
-70 ft-21.336 m
Coordinates 36° 54' 17.70" N, 50° 40' 57.38" E
Runways
Designator Length Width Surface ROPS
13/31 1500 m4,921.26 ft
45 m147.638 ft
ASP /


METAR
Observation OINR 111000Z 08006KT 8000 FEW020 SCT033TCU 17/14 Q1009
Station Ramsar
Date/Time 11 April 2019 10:00:00
Wind direction 80°
Wind speed 06 kts
Lowest cloud amount few clouds
Temperature 17°C
Dew point 14°C
Humidity 82%
QNH 1009 hPa
Weather condition n/a

Airport 3 km1.62 nm
3,000 m
9,842.52 ft
south east of the centre of Ramsar in norther Iran.

Climatology

Warm Mediterranean climate (Köppen climate classification Csa).

Maps

Terrain

Loading map...

Airport Layout

Loading map...


Accidents & Serious Incidents at or in vicinity of OINR

None on SKYbrary